createdAt,value
2023-01-02T00:00:24.816Z,69
2023-01-02T00:01:41.140Z,69.1
2023-01-02T00:02:57.423Z,69.2
2023-01-02T00:04:13.697Z,69.2
2023-01-02T00:05:30.011Z,69.3
2023-01-02T00:06:46.321Z,69.4
2023-01-02T00:08:02.596Z,69.3
2023-01-02T00:09:18.901Z,69.3
2023-01-02T00:10:35.196Z,69.4
2023-01-02T00:11:51.464Z,69.6
2023-01-02T00:13:07.786Z,69.6
2023-01-02T00:14:23.077Z,69.8
2023-01-02T00:15:39.362Z,69.9
2023-01-02T00:16:55.668Z,70
2023-01-02T00:18:11.950Z,70.1
2023-01-02T00:19:28.241Z,70.2
2023-01-02T00:20:44.538Z,70.2
2023-01-02T00:22:00.836Z,70.3
2023-01-02T00:23:17.122Z,70.4
2023-01-02T00:24:33.413Z,70.3
2023-01-02T00:25:49.713Z,70.3
2023-01-02T00:27:06.013Z,70.2
2023-01-02T00:28:22.294Z,70
2023-01-02T00:29:38.615Z,69.8
2023-01-02T00:30:53.898Z,69.8
2023-01-02T00:32:10.221Z,69.4
2023-01-02T00:33:26.514Z,69.5
2023-01-02T00:34:42.799Z,69.2
2023-01-02T00:35:59.097Z,69
2023-01-02T00:37:15.397Z,69.1
2023-01-02T00:38:31.670Z,68.8
2023-01-02T00:39:47.971Z,68.8
2023-01-02T00:41:04.249Z,68.5
2023-01-02T00:42:20.547Z,68.5
2023-01-02T00:43:36.847Z,68.5
2023-01-02T00:44:53.141Z,68.3
2023-01-02T00:46:09.427Z,68.3
2023-01-02T00:47:24.770Z,68.1
2023-01-02T00:48:41.027Z,67.8
2023-01-02T00:49:57.327Z,68.1
2023-01-02T00:51:13.653Z,68.2
2023-01-02T00:52:29.922Z,68.1
2023-01-02T00:53:46.208Z,68.1
2023-01-02T00:55:02.501Z,68.1
2023-01-02T00:56:18.794Z,68.1
2023-01-02T00:57:35.088Z,68.2
2023-01-02T00:58:51.402Z,67.8
2023-01-02T01:00:07.683Z,67.7
2023-01-02T01:01:23.996Z,67.4
2023-01-02T01:02:40.262Z,67.4
2023-01-02T01:03:55.589Z,67.4
2023-01-02T01:05:11.878Z,67.3
2023-01-02T01:06:28.187Z,67.3
2023-01-02T01:07:44.485Z,67.4
2023-01-02T01:09:00.770Z,67.3
2023-01-02T01:10:17.057Z,67.3
2023-01-02T01:11:32.378Z,67.2
2023-01-02T01:12:48.650Z,66.9
2023-01-02T01:14:04.946Z,66.8
2023-01-02T01:16:37.546Z,66.8
2023-01-02T01:17:53.842Z,66.8
2023-01-02T01:19:10.118Z,66.5
2023-01-02T01:20:26.427Z,66.5
2023-01-02T01:21:42.711Z,66.1
2023-01-02T01:22:59.011Z,66
2023-01-02T01:24:15.302Z,66
2023-01-02T01:25:31.604Z,65.8
2023-01-02T01:26:47.888Z,65.8
2023-01-02T01:28:03.190Z,65.3
2023-01-02T01:29:19.505Z,65.3
2023-01-02T01:30:35.778Z,65.2
2023-01-02T01:31:52.072Z,65.2
2023-01-02T01:33:08.366Z,65
2023-01-02T01:34:24.659Z,65
2023-01-02T01:35:40.971Z,65.3
2023-01-02T01:36:57.264Z,65.3
2023-01-02T01:38:13.550Z,64.9
2023-01-02T01:39:29.850Z,64.9
2023-01-02T01:40:46.131Z,64.8
2023-01-02T01:42:02.433Z,64.7
2023-01-02T01:43:18.720Z,64.7
2023-01-02T01:44:34.058Z,64.5
2023-01-02T01:45:50.332Z,64.5
2023-01-02T01:47:06.624Z,64.4
2023-01-02T01:48:22.927Z,64.3
2023-01-02T01:49:39.229Z,64.4
2023-01-02T01:50:55.508Z,64.3
2023-01-02T01:52:11.791Z,64.1
2023-01-02T01:53:28.085Z,64.3
2023-01-02T01:54:44.390Z,64.2
2023-01-02T01:56:00.705Z,64.1
2023-01-02T01:57:16.976Z,64.3
2023-01-02T01:58:33.270Z,64.2
2023-01-02T01:59:49.550Z,63.9
2023-01-02T02:01:04.863Z,64
2023-01-02T02:02:21.155Z,63.9
2023-01-02T02:03:37.477Z,64
2023-01-02T02:04:53.766Z,63.7
2023-01-02T02:06:10.041Z,63.7
2023-01-02T02:07:26.340Z,63.6
2023-01-02T02:08:42.665Z,63.6
2023-01-02T02:09:58.917Z,63.8
2023-01-02T02:11:15.239Z,63.8
2023-01-02T02:12:31.504Z,63.5
2023-01-02T02:13:47.804Z,63.6
2023-01-02T02:15:04.126Z,63.5
2023-01-02T02:16:20.413Z,63.3
2023-01-02T02:17:35.710Z,63.3
2023-01-02T02:18:51.990Z,63.3
2023-01-02T02:20:08.289Z,63.2
2023-01-02T02:21:24.582Z,63.2
2023-01-02T02:22:40.897Z,63.1
2023-01-02T02:23:57.179Z,63.3
2023-01-02T02:25:13.485Z,63.3
2023-01-02T02:26:29.762Z,63.2
2023-01-02T02:27:46.047Z,63.1
2023-01-02T02:29:02.350Z,63
2023-01-02T02:30:18.651Z,63.2
2023-01-02T02:31:34.952Z,63.1
2023-01-02T02:32:51.223Z,63.2
2023-01-02T02:34:06.556Z,63.1
2023-01-02T02:35:22.839Z,63.2
2023-01-02T02:36:39.124Z,63.3
2023-01-02T02:37:55.425Z,63.2
2023-01-02T02:39:11.707Z,63.3
2023-01-02T02:40:28.030Z,63.5
2023-01-02T02:41:44.305Z,63.5
2023-01-02T02:43:00.594Z,63.5
2023-01-02T02:44:16.892Z,63.5
2023-01-02T02:45:33.181Z,63.8
2023-01-02T02:46:49.477Z,63.6
2023-01-02T02:48:05.779Z,63.4
2023-01-02T02:49:22.100Z,63.4
2023-01-02T02:50:37.376Z,63.2
2023-01-02T02:51:53.683Z,62.9
2023-01-02T02:53:09.959Z,63
2023-01-02T02:54:26.281Z,62.8
2023-01-02T02:55:42.545Z,63
2023-01-02T02:56:58.854Z,63
2023-01-02T02:58:15.156Z,63.2
2023-01-02T02:59:31.426Z,63.1
2023-01-02T03:00:47.750Z,63
2023-01-02T03:02:04.045Z,63
2023-01-02T03:03:20.321Z,63
2023-01-02T03:04:36.600Z,62.9
2023-01-02T03:05:52.927Z,62.7
2023-01-02T03:07:08.209Z,62.7
2023-01-02T03:08:24.506Z,62.7
2023-01-02T03:09:40.821Z,62.7
2023-01-02T03:10:57.098Z,62.8
2023-01-02T03:12:13.389Z,62.8
2023-01-02T03:13:29.680Z,62.6
2023-01-02T03:14:45.987Z,62.7
2023-01-02T03:16:02.278Z,62.5
2023-01-02T03:17:18.554Z,62.6
2023-01-02T03:18:34.865Z,62.7
2023-01-02T03:19:51.172Z,62.7
2023-01-02T03:21:07.454Z,62.5
2023-01-02T03:22:23.749Z,62.5
2023-01-02T03:23:39.050Z,62.5
2023-01-02T03:24:55.370Z,62.5
2023-01-02T03:26:11.654Z,62.4
2023-01-02T03:27:27.921Z,62.5
2023-01-02T03:28:44.247Z,62.4
2023-01-02T03:30:00.510Z,62.4
2023-01-02T03:31:16.804Z,62.6
2023-01-02T03:32:33.132Z,62.6
2023-01-02T03:33:49.389Z,62.7
2023-01-02T03:35:05.714Z,62.6
2023-01-02T03:36:21.990Z,62.4
2023-01-02T03:37:38.281Z,62.4
2023-01-02T03:38:54.568Z,62.5
2023-01-02T03:40:09.888Z,62.6
2023-01-02T03:41:26.203Z,62.8
2023-01-02T03:42:42.481Z,63
2023-01-02T03:43:58.790Z,62.9
2023-01-02T03:45:15.062Z,63.1
2023-01-02T03:46:31.370Z,63.2
2023-01-02T03:47:47.677Z,63.4
2023-01-02T03:49:03.939Z,63.3
2023-01-02T03:50:20.242Z,63.1
2023-01-02T03:51:36.545Z,63.1
2023-01-02T03:52:52.820Z,62.9
2023-01-02T03:54:09.109Z,62.8
2023-01-02T03:55:25.408Z,62.7
2023-01-02T03:56:40.721Z,62.8
2023-01-02T03:57:57.032Z,62.8
2023-01-02T03:59:13.336Z,63
2023-01-02T04:00:29.593Z,63.1
2023-01-02T04:01:45.920Z,63.1
2023-01-02T04:03:02.209Z,63.1
2023-01-02T04:04:18.472Z,63.1
2023-01-02T04:05:34.778Z,62.9
2023-01-02T04:06:51.074Z,63
2023-01-02T04:08:07.364Z,63
2023-01-02T04:09:23.678Z,62.9
2023-01-02T04:10:39.972Z,62.9
2023-01-02T04:11:56.239Z,62.9
2023-01-02T04:13:11.552Z,63
2023-01-02T04:14:27.848Z,63.1
2023-01-02T04:15:44.149Z,63.1
2023-01-02T04:17:00.432Z,63.1
2023-01-02T04:18:16.721Z,63
2023-01-02T04:19:33.022Z,63
2023-01-02T04:20:49.321Z,62.9
2023-01-02T04:22:05.632Z,62.9
2023-01-02T04:23:21.906Z,62.7
2023-01-02T04:24:38.193Z,62.8
2023-01-02T04:25:54.513Z,62.7
2023-01-02T04:27:10.807Z,62.7
2023-01-02T04:28:27.091Z,62.4
2023-01-02T04:29:42.394Z,62.5
2023-01-02T04:30:58.689Z,62.5
2023-01-02T04:32:14.969Z,62.5
2023-01-02T04:33:31.296Z,62.5
2023-01-02T04:34:47.571Z,62.6
2023-01-02T04:36:03.855Z,62.7
2023-01-02T04:37:20.173Z,62.5
2023-01-02T04:38:36.448Z,62.5
2023-01-02T04:39:52.761Z,62.7
2023-01-02T04:41:09.028Z,62.8
2023-01-02T04:42:25.319Z,62.8
2023-01-02T04:43:41.615Z,62.8
2023-01-02T04:44:57.934Z,62.7
2023-01-02T04:46:13.233Z,62.7
2023-01-02T04:47:29.517Z,62.8
2023-01-02T04:48:45.806Z,62.8
2023-01-02T04:50:02.098Z,62.7
2023-01-02T04:51:18.395Z,62.9
2023-01-02T04:52:34.726Z,62.8
2023-01-02T04:53:50.988Z,62.8
2023-01-02T04:55:07.273Z,62.8
2023-01-02T04:56:23.570Z,62.9
2023-01-02T04:57:39.891Z,62.8
2023-01-02T04:58:56.196Z,63
2023-01-02T05:00:12.482Z,63
2023-01-02T05:01:28.754Z,63.1
2023-01-02T05:02:44.086Z,63
2023-01-02T05:04:00.349Z,63
2023-01-02T05:05:16.679Z,63
2023-01-02T05:06:32.936Z,62.7
2023-01-02T05:07:49.246Z,62.7
2023-01-02T05:09:05.527Z,62.4
2023-01-02T05:10:21.852Z,62.3
2023-01-02T05:11:38.124Z,62.4
2023-01-02T05:12:54.434Z,62.3
2023-01-02T05:14:10.739Z,62.5
2023-01-02T05:15:26.999Z,62.5
2023-01-02T05:16:43.304Z,62.6
2023-01-02T05:17:59.593Z,62.6
2023-01-02T05:19:14.916Z,62.3
2023-01-02T05:20:31.194Z,62.2
2023-01-02T05:21:47.491Z,62.3
2023-01-02T05:23:03.816Z,62.4
2023-01-02T05:24:20.068Z,62.7
2023-01-02T05:25:36.393Z,62.4
2023-01-02T05:26:51.676Z,62.5
2023-01-02T05:28:07.981Z,62.6
2023-01-02T05:29:24.264Z,62.5
2023-01-02T05:30:40.560Z,62.6
2023-01-02T05:31:56.860Z,62.6
2023-01-02T05:33:13.160Z,62.5
2023-01-02T05:34:29.439Z,62.4
2023-01-02T05:35:45.739Z,62.5
2023-01-02T05:37:02.032Z,62.3
2023-01-02T05:38:18.329Z,62.4
2023-01-02T05:39:34.613Z,62.1
2023-01-02T05:40:50.909Z,62.1
2023-01-02T05:42:07.212Z,62.1
2023-01-02T05:43:22.510Z,62
2023-01-02T05:44:38.804Z,62.3
2023-01-02T05:45:55.100Z,62.3
2023-01-02T05:47:11.400Z,62.4
2023-01-02T05:48:27.710Z,62.5
2023-01-02T05:49:43.997Z,62.6
2023-01-02T05:51:00.288Z,62.7
2023-01-02T05:52:16.572Z,62.7
2023-01-02T05:53:32.859Z,62.6
2023-01-02T05:54:49.165Z,62.6
2023-01-02T05:56:05.459Z,62.6
2023-01-02T05:57:21.744Z,62.5
2023-01-02T05:58:38.055Z,62.4
2023-01-02T05:59:53.350Z,62.6
2023-01-02T06:01:09.644Z,62.6
2023-01-02T06:02:25.942Z,62.6
2023-01-02T06:03:42.235Z,62.7
2023-01-02T06:04:58.530Z,62.5
2023-01-02T06:06:14.818Z,62.8
2023-01-02T06:07:31.119Z,62.5
2023-01-02T06:08:47.420Z,62.6
2023-01-02T06:10:03.708Z,62.8
2023-01-02T06:11:20.002Z,62.7
2023-01-02T06:12:36.298Z,62.9
2023-01-02T06:13:52.587Z,62.7
2023-01-02T06:15:08.884Z,62.9
2023-01-02T06:16:24.185Z,63.1
2023-01-02T06:17:40.480Z,62.9
2023-01-02T06:18:56.779Z,63.1
2023-01-02T06:20:13.072Z,63.2
2023-01-02T06:21:29.359Z,63
2023-01-02T06:22:45.649Z,63.1
2023-01-02T06:24:01.961Z,63.2
2023-01-02T06:25:18.246Z,63.1
2023-01-02T06:26:34.546Z,63.2
2023-01-02T06:27:50.833Z,63.3
2023-01-02T06:29:07.127Z,63.2
2023-01-02T06:30:23.419Z,63.1
2023-01-02T06:31:39.717Z,63.1
2023-01-02T06:32:55.031Z,62.9
2023-01-02T06:34:11.326Z,63
2023-01-02T06:35:27.604Z,63.1
2023-01-02T06:36:43.910Z,63
2023-01-02T06:38:00.201Z,63.1
2023-01-02T06:39:16.488Z,63
2023-01-02T06:40:32.778Z,63
2023-01-02T06:41:49.094Z,63
2023-01-02T06:43:05.370Z,63
2023-01-02T06:44:21.674Z,63.1
2023-01-02T06:45:37.910Z,63.2
2023-01-02T06:46:54.199Z,63.2
2023-01-02T06:48:10.503Z,63.2
2023-01-02T06:49:25.780Z,63.1
2023-01-02T06:50:42.009Z,63.1
2023-01-02T06:51:58.236Z,63.3
2023-01-02T06:53:14.486Z,63.4
2023-01-02T06:54:30.770Z,63.6
2023-01-02T06:55:47.025Z,63.6
2023-01-02T06:57:03.270Z,63.8
2023-01-02T06:58:19.520Z,63.6
2023-01-02T06:59:35.777Z,63.7
2023-01-02T07:00:52.022Z,63.9
2023-01-02T07:02:08.252Z,64.2
2023-01-02T07:03:24.499Z,64.6
2023-01-02T07:04:40.732Z,64.7
2023-01-02T07:05:55.994Z,64.7
2023-01-02T07:07:12.226Z,64.8
2023-01-02T07:08:28.458Z,64.5
2023-01-02T07:09:44.697Z,64.5
2023-01-02T07:11:00.943Z,64.4
2023-01-02T07:12:17.190Z,64.2
2023-01-02T07:13:33.429Z,64.5
2023-01-02T07:14:49.670Z,64.5
2023-01-02T07:16:05.905Z,64.7
2023-01-02T07:17:22.161Z,64.7
2023-01-02T07:18:38.393Z,65.1
2023-01-02T07:19:54.632Z,64.8
2023-01-02T07:21:10.866Z,64.8
2023-01-02T07:22:26.134Z,64.2
2023-01-02T07:23:42.362Z,64.6
2023-01-02T07:24:58.000Z,64.3
2023-01-02T07:26:14.832Z,64.3
2023-01-02T07:27:31.091Z,64.1
2023-01-02T07:28:47.327Z,63.7
2023-01-02T07:30:03.553Z,63.8
2023-01-02T07:31:19.802Z,63.6
2023-01-02T07:32:36.042Z,63.6
2023-01-02T07:33:52.278Z,63.4
2023-01-02T07:35:08.531Z,63
2023-01-02T07:36:24.768Z,62.9
2023-01-02T07:37:41.003Z,63.2
2023-01-02T07:38:56.266Z,62.8
2023-01-02T07:40:12.487Z,62.9
2023-01-02T07:41:28.727Z,63
2023-01-02T07:42:44.974Z,62.9
2023-01-02T07:44:01.228Z,63
2023-01-02T07:45:17.448Z,63.2
2023-01-02T07:46:33.706Z,63.1
2023-01-02T07:47:49.936Z,63.4
2023-01-02T07:49:06.168Z,63.8
2023-01-02T07:50:22.427Z,63.8
2023-01-02T07:51:38.658Z,64.2
2023-01-02T07:52:54.895Z,63.7
2023-01-02T07:54:11.128Z,63.6
2023-01-02T07:55:26.395Z,63.8
2023-01-02T07:56:42.630Z,63.8
2023-01-02T07:57:58.880Z,63.9
2023-01-02T07:59:15.109Z,63.9
2023-01-02T08:00:31.340Z,64
2023-01-02T08:01:47.588Z,64
2023-01-02T08:03:03.834Z,63.9
2023-01-02T08:04:20.077Z,63.8
2023-01-02T08:05:36.313Z,64.1
2023-01-02T08:06:52.551Z,64.2
2023-01-02T08:08:08.791Z,64.2
2023-01-02T08:09:25.031Z,64
2023-01-02T08:10:41.284Z,64.2
2023-01-02T08:11:56.533Z,64
2023-01-02T08:13:12.761Z,64.3
2023-01-02T08:14:29.014Z,64.5
2023-01-02T08:15:45.239Z,63.9
2023-01-02T08:17:01.483Z,64.2
2023-01-02T08:18:17.718Z,64.2
2023-01-02T08:19:33.961Z,64.2
2023-01-02T08:20:50.198Z,64.5
2023-01-02T08:22:06.445Z,64.5
2023-01-02T08:23:22.685Z,64.8
2023-01-02T08:24:38.931Z,64.7
2023-01-02T08:25:55.159Z,65
2023-01-02T08:27:11.403Z,65.1
2023-01-02T08:28:26.659Z,64.8
2023-01-02T08:29:42.898Z,65.1
2023-01-02T08:30:59.133Z,65.2
2023-01-02T08:32:15.379Z,65.2
2023-01-02T08:33:31.623Z,65.3
2023-01-02T08:34:47.855Z,65.2
2023-01-02T08:36:04.094Z,65.3
2023-01-02T08:37:20.338Z,65.2
2023-01-02T08:38:36.580Z,65.3
2023-01-02T08:39:52.822Z,65.3
2023-01-02T08:41:09.065Z,65.4
2023-01-02T08:42:25.315Z,65.4
2023-01-02T08:43:41.537Z,65.3
2023-01-02T08:44:56.787Z,65.5
2023-01-02T08:46:13.035Z,65.4
2023-01-02T08:47:29.271Z,65.7
2023-01-02T08:48:45.517Z,65.8
2023-01-02T08:50:01.759Z,65.7
2023-01-02T08:51:17.990Z,65.5
2023-01-02T08:52:34.224Z,65.7
2023-01-02T08:53:50.477Z,65.7
2023-01-02T08:55:06.717Z,66
2023-01-02T08:56:22.962Z,65.7
2023-01-02T08:57:39.202Z,65.7
2023-01-02T08:58:55.449Z,65.7
2023-01-02T09:00:11.678Z,65.4
2023-01-02T09:01:26.922Z,65.6
2023-01-02T09:02:43.162Z,65.6
2023-01-02T09:03:59.402Z,65.6
2023-01-02T09:05:15.648Z,65.6
2023-01-02T09:06:31.885Z,65.8
2023-01-02T09:07:48.135Z,65.6
2023-01-02T09:09:04.360Z,65.3
2023-01-02T09:10:20.600Z,65.4
2023-01-02T09:11:36.856Z,65.5
2023-01-02T09:12:53.087Z,65.2
2023-01-02T09:14:09.341Z,65.4
2023-01-02T09:15:25.584Z,65.2
2023-01-02T09:16:41.810Z,65.3
2023-01-02T09:17:57.077Z,65.3
2023-01-02T09:19:13.305Z,65.2
2023-01-02T09:20:29.541Z,65.2
2023-01-02T09:21:45.775Z,65
2023-01-02T09:23:02.038Z,65.1
2023-01-02T09:24:18.269Z,65.2
2023-01-02T09:25:34.499Z,65.2
2023-01-02T09:26:50.745Z,64.8
2023-01-02T09:28:06.985Z,64.8
2023-01-02T09:29:23.233Z,64.9
2023-01-02T09:30:39.464Z,64.8
2023-01-02T09:31:55.703Z,65.1
2023-01-02T09:33:11.936Z,64.7
2023-01-02T09:34:27.211Z,64.4
2023-01-02T09:35:43.431Z,64.6
2023-01-02T09:36:59.683Z,64.7
2023-01-02T09:38:15.910Z,64.6
2023-01-02T09:39:32.171Z,64.3
2023-01-02T09:40:48.400Z,64.2
2023-01-02T09:42:03.668Z,64.3
2023-01-02T09:43:19.899Z,64.1
2023-01-02T09:44:36.140Z,64.6
2023-01-02T09:45:52.392Z,64.1
2023-01-02T09:47:08.622Z,63.8
2023-01-02T09:48:24.860Z,63.7
2023-01-02T09:49:41.102Z,63.9
2023-01-02T09:50:57.334Z,64
2023-01-02T09:52:13.586Z,63.4
2023-01-02T09:53:29.817Z,63.5
2023-01-02T09:54:46.050Z,63.5
2023-01-02T09:56:02.307Z,63.4
2023-01-02T09:57:18.536Z,63.4
2023-01-02T09:58:33.791Z,63.2
2023-01-02T09:59:50.037Z,63.2
2023-01-02T10:01:06.290Z,63.1
2023-01-02T10:02:22.522Z,63
2023-01-02T10:03:38.765Z,62.7
2023-01-02T10:04:54.988Z,63.1
2023-01-02T10:06:11.244Z,63
2023-01-02T10:07:27.479Z,63.2
2023-01-02T10:08:43.726Z,63.1
2023-01-02T10:09:59.968Z,62.9
2023-01-02T10:11:16.188Z,62.7
2023-01-02T10:12:32.433Z,62.7
2023-01-02T10:13:48.666Z,62.3
2023-01-02T10:15:03.927Z,62.6
2023-01-02T10:16:20.173Z,62.4
2023-01-02T10:17:36.409Z,61.8
2023-01-02T10:18:52.644Z,61.5
2023-01-02T10:20:08.893Z,61.2
2023-01-02T10:21:25.123Z,61.1
2023-01-02T10:22:41.366Z,60.8
2023-01-02T10:23:57.612Z,61.1
2023-01-02T10:25:13.852Z,60.9
2023-01-02T10:26:30.107Z,61.2
2023-01-02T10:27:46.321Z,61.3
2023-01-02T10:29:02.575Z,61.6
2023-01-02T10:30:18.807Z,61.5
2023-01-02T10:31:34.064Z,61.6
2023-01-02T10:32:50.313Z,61.6
2023-01-02T10:34:06.543Z,61.3
2023-01-02T10:35:22.776Z,61.9
2023-01-02T10:36:39.018Z,61.4
2023-01-02T10:37:55.270Z,61.6
2023-01-02T10:39:11.501Z,62
2023-01-02T10:40:27.734Z,61.5
2023-01-02T10:41:43.975Z,61.3
2023-01-02T10:43:00.211Z,61.6
2023-01-02T10:44:16.466Z,61.5
2023-01-02T10:45:32.704Z,61.5
2023-01-02T10:46:48.942Z,61.6
2023-01-02T10:48:04.201Z,61.4
2023-01-02T10:49:20.446Z,61.3
2023-01-02T10:50:36.675Z,61.4
2023-01-02T10:51:52.919Z,61.5
2023-01-02T10:53:09.163Z,61.5
2023-01-02T10:54:25.399Z,61.7
2023-01-02T10:55:41.638Z,61.2
2023-01-02T10:56:57.890Z,61.1
2023-01-02T10:58:14.117Z,61.3
2023-01-02T10:59:30.354Z,61.1
2023-01-02T11:00:46.606Z,61.4
2023-01-02T11:02:02.832Z,61.3
2023-01-02T11:03:19.083Z,61
2023-01-02T11:04:34.334Z,60.7
2023-01-02T11:05:50.583Z,60.5
2023-01-02T11:07:06.803Z,60.1
2023-01-02T11:08:23.049Z,59.9
2023-01-02T11:09:39.290Z,58.9
2023-01-02T11:10:55.524Z,58.1
2023-01-02T11:12:11.774Z,58.3
2023-01-02T11:13:28.004Z,58.2
2023-01-02T11:14:44.241Z,57.8
2023-01-02T11:16:00.487Z,57.7
2023-01-02T11:17:16.723Z,57.6
2023-01-02T11:18:32.968Z,55.6
2023-01-02T11:19:49.202Z,54.1
2023-01-02T11:21:04.453Z,52.2
2023-01-02T11:22:20.696Z,51.4
2023-01-02T11:23:36.943Z,51.1
2023-01-02T11:24:53.172Z,50.2
2023-01-02T11:26:09.425Z,49.5
2023-01-02T11:27:25.656Z,49.7
2023-01-02T11:28:41.893Z,49.9
2023-01-02T11:29:58.133Z,50.4
2023-01-02T11:31:14.399Z,51.2
2023-01-02T11:32:30.634Z,51.8
2023-01-02T11:33:46.855Z,52.9
2023-01-02T11:35:03.095Z,53.6
2023-01-02T11:36:19.344Z,54.1
2023-01-02T11:37:34.605Z,54.5
2023-01-02T11:38:50.845Z,54.9
2023-01-02T11:40:07.081Z,55.3
2023-01-02T11:41:23.306Z,55.6
2023-01-02T11:42:39.551Z,55.8
2023-01-02T11:43:55.786Z,56.2
2023-01-02T11:45:12.044Z,56.3
2023-01-02T11:46:28.266Z,56.8
2023-01-02T11:47:44.504Z,56.9
2023-01-02T11:49:00.744Z,57.1
2023-01-02T11:50:16.996Z,57.2
2023-01-02T11:51:33.246Z,57.4
2023-01-02T11:52:49.476Z,57.9
2023-01-02T11:54:04.719Z,58.1
2023-01-02T11:55:20.970Z,58.1
2023-01-02T11:56:37.221Z,58.1
2023-01-02T11:57:53.441Z,58.1
2023-01-02T11:59:09.682Z,58.4
2023-01-02T12:00:25.931Z,58.4
2023-01-02T12:01:42.164Z,57.9
2023-01-02T12:02:58.417Z,58.4
2023-01-02T12:04:14.660Z,58
2023-01-02T12:05:30.897Z,58
2023-01-02T12:06:47.128Z,58.2
2023-01-02T12:08:03.372Z,58.5
2023-01-02T12:09:19.594Z,58.4
2023-01-02T12:10:34.862Z,58.1
2023-01-02T12:11:51.104Z,58.7
2023-01-02T12:13:07.353Z,59
2023-01-02T12:14:23.569Z,58.7
2023-01-02T12:15:39.813Z,58.4
2023-01-02T12:16:56.077Z,59
2023-01-02T12:18:12.313Z,58.9
2023-01-02T12:19:28.530Z,58.2
2023-01-02T12:20:44.778Z,58.2
2023-01-02T12:22:01.021Z,58
2023-01-02T12:23:17.258Z,57.8
2023-01-02T12:24:33.515Z,57.6
2023-01-02T12:25:49.745Z,57.4
2023-01-02T12:27:04.982Z,57.5
2023-01-02T12:28:21.242Z,57.4
2023-01-02T12:29:37.464Z,57.2
2023-01-02T12:30:53.710Z,57.3
2023-01-02T12:32:09.964Z,57.3
2023-01-02T12:33:26.197Z,57.2
2023-01-02T12:34:42.423Z,57
2023-01-02T12:35:58.664Z,57
2023-01-02T12:37:14.901Z,56.9
2023-01-02T12:38:31.156Z,56.9
2023-01-02T12:39:47.391Z,57.1
2023-01-02T12:41:03.647Z,57.3
2023-01-02T12:42:19.860Z,57
2023-01-02T12:43:35.134Z,57.2
2023-01-02T12:44:51.379Z,57.6
2023-01-02T12:46:07.601Z,57.5
2023-01-02T12:47:23.863Z,57.7
2023-01-02T12:48:40.083Z,57.8
2023-01-02T12:49:56.327Z,57.5
2023-01-02T12:51:12.581Z,57.8
2023-01-02T12:52:28.824Z,57.7
2023-01-02T12:53:45.036Z,57.9
2023-01-02T12:55:01.292Z,57.9
2023-01-02T12:56:17.544Z,58
2023-01-02T12:57:33.764Z,58.2
2023-01-02T12:58:50.010Z,58.2
2023-01-02T13:00:05.267Z,58.2
2023-01-02T13:01:21.496Z,58.3
2023-01-02T13:02:37.746Z,58.2
2023-01-02T13:03:53.967Z,58.5
2023-01-02T13:05:10.221Z,58.4
2023-01-02T13:06:26.473Z,58.3
2023-01-02T13:07:42.720Z,58.5
2023-01-02T13:08:58.941Z,58.4
2023-01-02T13:10:15.179Z,58.4
2023-01-02T13:11:31.415Z,58.6
2023-01-02T13:12:47.666Z,58.4
2023-01-02T13:14:03.898Z,58
2023-01-02T13:15:20.131Z,58.4
2023-01-02T13:16:35.389Z,58.3
2023-01-02T13:17:51.628Z,58.3
2023-01-02T13:19:07.881Z,58.3
2023-01-02T13:20:24.126Z,58.5
2023-01-02T13:21:40.363Z,58.2
2023-01-02T13:22:56.585Z,58.2
2023-01-02T13:24:12.840Z,58.1
2023-01-02T13:25:29.074Z,58
2023-01-02T13:26:45.308Z,58.1
2023-01-02T13:28:01.539Z,58.2
2023-01-02T13:29:17.791Z,58.1
2023-01-02T13:30:34.024Z,58.2
2023-01-02T13:31:50.268Z,58
2023-01-02T13:33:05.515Z,58.2
2023-01-02T13:34:21.754Z,58.1
2023-01-02T13:35:38.010Z,58.1
2023-01-02T13:36:54.248Z,58
2023-01-02T13:38:10.478Z,58.1
2023-01-02T13:39:26.721Z,58.3
2023-01-02T13:40:42.954Z,57.7
2023-01-02T13:41:59.198Z,57.5
2023-01-02T13:43:15.438Z,57.8
2023-01-02T13:44:31.686Z,57.4
2023-01-02T13:45:47.912Z,57
2023-01-02T13:47:04.172Z,57.2
2023-01-02T13:48:20.420Z,56.6
2023-01-02T13:49:35.663Z,56.8
2023-01-02T13:50:51.911Z,57.2
2023-01-02T13:52:08.137Z,57.5
2023-01-02T13:53:24.375Z,57.1
2023-01-02T13:54:40.626Z,57
2023-01-02T13:55:56.866Z,57.1
2023-01-02T13:57:12.113Z,57
2023-01-02T13:58:28.353Z,57.3
2023-01-02T13:59:44.606Z,57.3
2023-01-02T14:01:00.849Z,57.4
2023-01-02T14:02:17.069Z,58
2023-01-02T14:03:33.318Z,57.8
2023-01-02T14:04:49.569Z,58.5
2023-01-02T14:06:05.795Z,58.2
2023-01-02T14:07:22.041Z,58.3
2023-01-02T14:08:38.282Z,58.9
2023-01-02T14:09:54.521Z,58.9
2023-01-02T14:11:10.764Z,58.9
2023-01-02T14:12:27.007Z,58.9
2023-01-02T14:13:42.254Z,59.3
2023-01-02T14:14:58.486Z,59.4
2023-01-02T14:16:14.730Z,59.4
2023-01-02T14:17:30.963Z,59.6
2023-01-02T14:18:47.210Z,59.6
2023-01-02T14:20:03.463Z,59.6
2023-01-02T14:21:19.705Z,59.9
2023-01-02T14:22:35.930Z,59.4
2023-01-02T14:23:52.160Z,59.6
2023-01-02T14:25:08.408Z,60
2023-01-02T14:26:24.662Z,60
2023-01-02T14:27:40.895Z,60
2023-01-02T14:28:57.128Z,60.2
2023-01-02T14:30:12.400Z,60.3
2023-01-02T14:31:28.638Z,60.1
2023-01-02T14:32:44.858Z,60.2
2023-01-02T14:34:01.128Z,60.4
2023-01-02T14:35:17.357Z,60.8
2023-01-02T14:36:33.575Z,60.5
2023-01-02T14:37:49.835Z,60.6
2023-01-02T14:39:06.065Z,60.9
2023-01-02T14:40:22.303Z,60.7
2023-01-02T14:41:38.533Z,61.3
2023-01-02T14:42:54.791Z,60.4
2023-01-02T14:44:11.039Z,60.8
2023-01-02T14:45:27.253Z,60.8
2023-01-02T14:46:42.529Z,60.8
2023-01-02T14:47:58.749Z,60.4
2023-01-02T14:49:15.004Z,60.7
2023-01-02T14:50:31.248Z,61.2
2023-01-02T14:51:47.483Z,61.3
2023-01-02T14:53:03.717Z,61.2
2023-01-02T14:54:19.949Z,61.3
2023-01-02T14:55:36.202Z,61.4
2023-01-02T14:56:52.438Z,62
2023-01-02T14:58:08.689Z,61.4
2023-01-02T14:59:24.930Z,61.6
2023-01-02T15:00:41.165Z,61.7
2023-01-02T15:01:57.398Z,61.6
2023-01-02T15:04:28.902Z,62.1
2023-01-02T15:05:45.151Z,62.1
2023-01-02T15:07:01.366Z,61.9
2023-01-02T15:08:17.614Z,62.3
2023-01-02T15:09:33.868Z,62.6
2023-01-02T15:10:50.087Z,62.5
2023-01-02T15:12:06.334Z,62.8
2023-01-02T15:13:22.565Z,63.2
2023-01-02T15:14:38.801Z,63.4
2023-01-02T15:15:55.056Z,63.7
2023-01-02T15:17:11.291Z,63.1
2023-01-02T15:18:27.520Z,63.3
2023-01-02T15:19:42.792Z,63.4
2023-01-02T15:20:59.035Z,63.5
2023-01-02T15:22:15.273Z,63.5
2023-01-02T15:23:31.513Z,63.7
2023-01-02T15:24:47.734Z,64.2
2023-01-02T15:27:20.223Z,64.5
2023-01-02T15:28:36.482Z,64.8
2023-01-02T15:29:52.694Z,65
2023-01-02T15:31:08.966Z,64.9
2023-01-02T15:32:25.194Z,65.3
2023-01-02T15:33:41.416Z,65.6
2023-01-02T15:34:57.679Z,65.2
2023-01-02T15:36:12.913Z,65.3
2023-01-02T15:37:29.164Z,65.3
2023-01-02T15:38:45.409Z,65.2
2023-01-02T15:40:01.637Z,65.4
2023-01-02T15:41:17.926Z,65.4
2023-01-02T15:42:34.227Z,65.5
2023-01-02T15:43:50.521Z,65.6
2023-01-02T15:45:06.815Z,65.6
2023-01-02T15:46:23.110Z,65.6
2023-01-02T15:47:39.407Z,65.8
2023-01-02T15:48:55.688Z,66.1
2023-01-02T15:50:11.993Z,66
2023-01-02T15:51:28.297Z,66.3
2023-01-02T15:52:43.612Z,66.3
2023-01-02T15:53:59.911Z,66.5
2023-01-02T15:55:16.180Z,66.5
2023-01-02T15:56:32.466Z,66.8
2023-01-02T15:57:48.789Z,66.7
2023-01-02T15:59:05.081Z,66.7
2023-01-02T16:00:21.377Z,66.8
2023-01-02T16:01:37.666Z,67
2023-01-02T16:02:53.939Z,67.2
2023-01-02T16:04:10.239Z,67.2
2023-01-02T16:05:26.537Z,67.4
2023-01-02T16:06:42.845Z,67.5
2023-01-02T16:07:59.142Z,67.5
2023-01-02T16:09:14.428Z,67.8
2023-01-02T16:10:30.000Z,67.9
2023-01-02T16:11:47.017Z,68
2023-01-02T16:13:03.303Z,68
2023-01-02T16:14:19.596Z,67.8
2023-01-02T16:15:35.890Z,67.7
2023-01-02T16:16:52.186Z,67.8
2023-01-02T16:18:08.484Z,67.5
2023-01-02T16:19:24.791Z,67.7
2023-01-02T16:20:41.093Z,67.6
2023-01-02T16:21:57.384Z,67.9
2023-01-02T16:23:13.672Z,67.9
2023-01-02T16:24:29.973Z,68.2
2023-01-02T16:25:45.260Z,68
2023-01-02T16:27:01.556Z,68
2023-01-02T16:28:17.848Z,68
2023-01-02T16:29:34.147Z,68.2
2023-01-02T16:30:50.467Z,68.2
2023-01-02T16:32:06.744Z,68.3
2023-01-02T16:33:23.019Z,68.5
2023-01-02T16:34:39.333Z,68.7
2023-01-02T16:35:55.613Z,68.8
2023-01-02T16:37:11.920Z,69
2023-01-02T16:38:28.206Z,69
2023-01-02T16:39:44.488Z,69.1
2023-01-02T16:41:00.803Z,69.3
2023-01-02T16:42:16.099Z,69.4
2023-01-02T16:43:32.425Z,69.5
2023-01-02T16:44:48.685Z,69.5
2023-01-02T16:46:04.999Z,69.7
2023-01-02T16:47:21.280Z,69.9
2023-01-02T16:48:37.561Z,69.9
2023-01-02T16:51:10.178Z,70
2023-01-02T16:52:26.472Z,70.1
2023-01-02T16:53:42.739Z,70.2
2023-01-02T16:54:59.059Z,70.4
2023-01-02T16:56:15.330Z,70.6
2023-01-02T16:57:31.644Z,70.8
2023-01-02T16:58:46.929Z,70.6
2023-01-02T17:00:03.252Z,70.6
2023-01-02T17:01:19.520Z,70.9
2023-01-02T17:02:35.812Z,70.9
2023-01-02T17:03:52.122Z,70.9
2023-01-02T17:05:08.401Z,71.2
2023-01-02T17:06:24.703Z,71.3